createdAt,value
2022-08-27T00:03:12.989Z,74.18
2022-08-27T00:08:17.319Z,74.55
2022-08-27T00:13:21.911Z,74.63
2022-08-27T00:18:25.411Z,74.79
2022-08-27T00:23:29.380Z,74.43
2022-08-27T00:28:34.459Z,74.40
2022-08-27T00:33:38.420Z,74.52
2022-08-27T00:38:42.223Z,74.49
2022-08-27T00:44:03.370Z,74.67
2022-08-27T00:49:25.333Z,74.76
2022-08-27T00:54:29.931Z,74.40
2022-08-27T00:59:33.751Z,74.57
2022-08-27T01:04:39.846Z,74.76
2022-08-27T01:09:44.274Z,74.40
2022-08-27T01:14:48.192Z,74.43
2022-08-27T01:20:00.095Z,74.69
2022-08-27T01:25:09.880Z,75.11
2022-08-27T01:30:17.441Z,74.67
2022-08-27T01:35:22.188Z,74.88
2022-08-27T01:40:26.017Z,75.13
2022-08-27T01:45:35.389Z,75.10
2022-08-27T01:50:41.462Z,74.79
2022-08-27T01:55:47.660Z,74.60
2022-08-27T02:00:56.464Z,74.78
2022-08-27T02:06:03.374Z,74.95
2022-08-27T02:11:07.838Z,74.67
2022-08-27T02:16:11.573Z,74.81
2022-08-27T02:21:17.718Z,74.90
2022-08-27T02:26:24.377Z,75.16
2022-08-27T02:31:28.186Z,75.18
2022-08-27T02:36:34.609Z,74.98
2022-08-27T02:41:42.836Z,75.33
2022-08-27T02:46:46.735Z,75.14
2022-08-27T02:51:55.802Z,75.11
2022-08-27T02:56:59.742Z,75.29
2022-08-27T03:02:03.429Z,75.43
2022-08-27T03:07:07.444Z,75.26
2022-08-27T03:12:19.757Z,75.39
2022-08-27T03:17:27.993Z,75.69
2022-08-27T03:22:31.450Z,75.93
2022-08-27T03:27:37.388Z,76.04
2022-08-27T03:32:46.451Z,75.79
2022-08-27T03:37:50.495Z,75.85
2022-08-27T03:42:54.128Z,75.90
2022-08-27T03:47:57.851Z,75.79
2022-08-27T03:53:01.160Z,76.06
2022-08-27T03:58:05.187Z,76.20
2022-08-27T04:03:11.895Z,76.26
2022-08-27T04:08:15.230Z,76.32
2022-08-27T04:13:18.989Z,76.13
2022-08-27T04:18:22.635Z,75.78
2022-08-27T04:23:26.501Z,75.95
2022-08-27T04:28:30.198Z,75.96
2022-08-27T04:33:34.287Z,75.26
2022-08-27T04:38:38.691Z,75.60
2022-08-27T04:43:43.213Z,74.91
2022-08-27T04:48:47.694Z,74.81
2022-08-27T04:54:01.094Z,74.87
2022-08-27T04:59:12.134Z,74.46
2022-08-27T05:04:18.845Z,74.16
2022-08-27T05:09:24.583Z,74.00
2022-08-27T05:14:30.978Z,73.69
2022-08-27T05:19:45.210Z,73.39
2022-08-27T05:24:50.469Z,72.56
2022-08-27T05:29:54.052Z,71.66
2022-08-27T05:34:57.593Z,70.82
2022-08-27T05:40:02.711Z,70.82
2022-08-27T05:45:06.854Z,70.91
2022-08-27T05:50:10.378Z,70.25
2022-08-27T05:55:13.647Z,70.26
2022-08-27T06:00:17.149Z,69.48
2022-08-27T06:05:28.808Z,69.25
2022-08-27T06:10:35.058Z,68.62
2022-08-27T06:15:40.059Z,68.26
2022-08-27T06:20:44.334Z,66.67
2022-08-27T06:25:47.574Z,63.87
2022-08-27T06:30:53.760Z,63.45
2022-08-27T06:36:00.340Z,63.73
2022-08-27T06:41:08.274Z,64.46
2022-08-27T06:46:24.497Z,64.62
2022-08-27T06:51:31.342Z,64.52
2022-08-27T06:56:37.075Z,65.22
2022-08-27T07:01:43.370Z,64.96
2022-08-27T07:06:47.081Z,64.78
2022-08-27T07:11:52.282Z,64.63
2022-08-27T07:16:56.366Z,65.35
2022-08-27T07:22:00.647Z,65.05
2022-08-27T07:27:04.827Z,64.89
2022-08-27T07:32:08.547Z,64.36
2022-08-27T07:37:14.878Z,64.12
2022-08-27T07:42:18.854Z,63.99
2022-08-27T07:47:23.193Z,63.20
2022-08-27T07:52:28.372Z,63.33
2022-08-27T07:57:34.764Z,62.71
2022-08-27T08:02:38.868Z,62.35
2022-08-27T08:07:42.472Z,61.14
2022-08-27T08:12:45.986Z,60.75
2022-08-27T08:17:51.471Z,60.54
2022-08-27T08:22:55.126Z,59.70
2022-08-27T08:27:58.670Z,59.13
2022-08-27T08:33:04.587Z,58.72
2022-08-27T08:38:08.844Z,58.34
2022-08-27T08:43:43.943Z,58.53
2022-08-27T08:48:52.313Z,58.45
2022-08-27T08:54:03.717Z,58.43
2022-08-27T08:59:18.772Z,58.68
2022-08-27T09:04:27.737Z,58.72
2022-08-27T09:09:52.546Z,58.56
2022-08-27T09:15:06.259Z,58.76
2022-08-27T09:20:18.546Z,59.23
2022-08-27T09:25:32.153Z,59.15
2022-08-27T09:30:45.434Z,58.96
2022-08-27T09:35:50.486Z,59.00
2022-08-27T09:40:56.980Z,59.10
2022-08-27T09:46:05.706Z,59.07
2022-08-27T09:51:13.917Z,58.99
2022-08-27T09:56:36.994Z,59.24
2022-08-27T10:01:53.281Z,59.54
2022-08-27T10:06:57.696Z,59.76
2022-08-27T10:12:13.052Z,59.58
2022-08-27T10:17:32.168Z,59.88
2022-08-27T10:22:59.362Z,59.82
2022-08-27T10:28:21.609Z,59.94
2022-08-27T10:33:38.365Z,60.28
2022-08-27T10:38:50.305Z,60.13
2022-08-27T10:44:12.283Z,60.32
2022-08-27T10:49:27.405Z,60.15
2022-08-27T10:54:48.074Z,60.31
2022-08-27T11:00:20.793Z,60.16
2022-08-27T11:05:29.216Z,60.43
2022-08-27T11:10:55.378Z,60.31
2022-08-27T11:16:02.268Z,60.19
2022-08-27T11:21:43.929Z,60.36
2022-08-27T11:26:50.570Z,60.74
2022-08-27T11:32:20.171Z,60.65
2022-08-27T11:37:26.725Z,60.65
2022-08-27T11:42:51.511Z,60.51
2022-08-27T11:48:00.082Z,60.88
2022-08-27T11:53:08.752Z,61.11
2022-08-27T11:58:17.946Z,61.28
2022-08-27T12:03:32.996Z,61.20
2022-08-27T12:08:40.991Z,60.78
2022-08-27T12:14:01.312Z,61.06
2022-08-27T12:19:16.484Z,61.03
2022-08-27T12:24:44.196Z,60.86
2022-08-27T12:30:21.297Z,60.77
2022-08-27T12:35:46.171Z,60.89
2022-08-27T12:40:51.708Z,60.94
2022-08-27T12:46:03.544Z,61.21
2022-08-27T12:51:19.075Z,61.43
2022-08-27T12:56:57.899Z,61.72
2022-08-27T13:02:19.765Z,62.10
2022-08-27T13:07:37.679Z,62.27
2022-08-27T13:12:44.196Z,62.09
2022-08-27T13:17:52.517Z,62.64
2022-08-27T13:22:56.237Z,62.95
2022-08-27T13:28:29.797Z,62.76
2022-08-27T13:33:36.813Z,62.83
2022-08-27T13:38:49.803Z,62.98
2022-08-27T13:43:58.494Z,63.39
2022-08-27T13:49:02.918Z,63.33
2022-08-27T13:54:12.275Z,63.06
2022-08-27T13:59:26.064Z,63.45
2022-08-27T14:04:38.551Z,63.02
2022-08-27T14:09:51.278Z,63.33
2022-08-27T14:15:11.074Z,63.32
2022-08-27T14:20:16.435Z,63.37
2022-08-27T14:25:22.951Z,63.37
2022-08-27T14:30:29.806Z,63.77
2022-08-27T14:35:36.346Z,63.69
2022-08-27T14:40:40.318Z,64.08
2022-08-27T14:45:48.607Z,63.98
2022-08-27T14:50:52.766Z,64.19
2022-08-27T14:55:56.146Z,64.27
2022-08-27T15:00:59.741Z,64.37
2022-08-27T15:06:03.797Z,64.65
2022-08-27T15:11:14.524Z,64.78
2022-08-27T15:16:32.043Z,64.58
2022-08-27T15:21:38.418Z,64.77
2022-08-27T15:26:42.014Z,65.24
2022-08-27T15:31:47.223Z,65.14
2022-08-27T15:36:53.483Z,64.99
2022-08-27T15:42:06.388Z,65.27
2022-08-27T15:47:10.846Z,65.46
2022-08-27T15:52:17.420Z,65.89
2022-08-27T15:57:21.257Z,65.94
2022-08-27T16:02:25.055Z,66.05
2022-08-27T16:07:28.793Z,66.17
2022-08-27T16:12:32.364Z,66.51
2022-08-27T16:17:36.601Z,66.79
2022-08-27T16:22:40.346Z,66.97
2022-08-27T16:27:43.756Z,67.30
2022-08-27T16:32:50.498Z,67.80
2022-08-27T16:37:53.890Z,68.02
2022-08-27T16:42:58.495Z,67.68
2022-08-27T16:48:01.982Z,68.24
2022-08-27T16:53:10.169Z,68.39
2022-08-27T16:58:23.864Z,68.47
2022-08-27T17:03:58.005Z,68.61
2022-08-27T17:09:03.669Z,68.52
2022-08-27T17:14:07.549Z,68.76
2022-08-27T17:19:16.678Z,68.71
2022-08-27T17:24:23.350Z,68.62
2022-08-27T17:29:29.120Z,68.80
2022-08-27T17:34:32.675Z,69.03
2022-08-27T17:39:36.253Z,68.90
2022-08-27T17:44:40.819Z,68.85
2022-08-27T17:49:47.919Z,69.01
2022-08-27T17:54:55.632Z,69.20
2022-08-27T18:00:04.168Z,69.39
2022-08-27T18:05:14.688Z,69.31
2022-08-27T18:10:22.915Z,69.24
2022-08-27T18:15:29.275Z,69.76
2022-08-27T18:20:34.181Z,69.58
2022-08-27T18:25:40.160Z,70.02
2022-08-27T18:30:46.024Z,70.18
2022-08-27T18:35:52.279Z,70.44
2022-08-27T18:40:56.531Z,70.47
2022-08-27T18:46:06.117Z,71.08
2022-08-27T18:51:12.372Z,71.11
2022-08-27T18:56:19.741Z,71.62
2022-08-27T19:01:26.756Z,72.03
2022-08-27T19:06:30.370Z,71.84
2022-08-27T19:11:34.043Z,72.23
2022-08-27T19:16:47.696Z,72.00
2022-08-27T19:21:54.133Z,72.59
2022-08-27T19:26:57.859Z,72.44
2022-08-27T19:32:01.806Z,72.86
2022-08-27T19:37:07.843Z,72.79
2022-08-27T19:42:11.297Z,73.39
2022-08-27T19:47:21.400Z,73.39
2022-08-27T19:52:25.184Z,73.47
2022-08-27T19:57:29.062Z,73.78
2022-08-27T20:02:33.931Z,74.25
2022-08-27T20:07:40.363Z,74.10
2022-08-27T20:12:45.802Z,74.68
2022-08-27T20:18:09.204Z,74.78
2022-08-27T20:23:12.802Z,74.82
2022-08-27T20:28:37.717Z,75.32
2022-08-27T20:33:40.196Z,75.06
2022-08-27T20:38:45.720Z,75.11
2022-08-27T20:43:52.275Z,75.61
2022-08-27T20:48:55.839Z,75.68
2022-08-27T20:53:59.205Z,75.90
2022-08-27T20:59:03.258Z,75.81
2022-08-27T21:04:06.903Z,75.93
2022-08-27T21:09:13.332Z,75.85
2022-08-27T21:14:21.594Z,76.05
2022-08-27T21:19:27.740Z,75.95
2022-08-27T21:24:31.219Z,75.95
2022-08-27T21:29:34.584Z,76.39
2022-08-27T21:34:37.989Z,76.34
2022-08-27T21:39:42.772Z,76.11
2022-08-27T21:44:50.460Z,76.50
2022-08-27T21:49:54.025Z,76.30
2022-08-27T21:55:00.854Z,76.55
2022-08-27T22:00:31.155Z,76.77
2022-08-27T22:05:34.941Z,76.86
2022-08-27T22:10:39.978Z,77.03
2022-08-27T22:15:44.103Z,77.19
2022-08-27T22:20:53.562Z,77.64
2022-08-27T22:25:57.665Z,77.55
2022-08-27T22:31:01.183Z,78.08
2022-08-27T22:36:04.554Z,78.01
2022-08-27T22:41:08.475Z,78.03
2022-08-27T22:46:12.589Z,78.39
2022-08-27T22:51:18.722Z,78.36
2022-08-27T22:56:22.104Z,78.51
2022-08-27T23:01:26.123Z,78.91
2022-08-27T23:06:29.562Z,78.88
2022-08-27T23:11:33.339Z,79.04
2022-08-27T23:16:38.914Z,79.45
2022-08-27T23:21:42.769Z,79.52
2022-08-27T23:26:47.099Z,79.39
2022-08-27T23:31:56.055Z,79.49
2022-08-27T23:37:01.069Z,80.01
2022-08-27T23:42:06.812Z,79.98
2022-08-27T23:47:10.665Z,79.90
2022-08-27T23:52:14.723Z,80.18
2022-08-27T23:57:19.238Z,80.35
